Avrameni, Romania

11:13 AM EEST on September 22, 2014 (GMT +0300)
Balti | Change Station
CLOSE
Current Station
Airport
Location: BALTI INTL ARPT,
Elevation: 758 ft
Nearby Weather Stations

Elev 758 ft 47.84 °N, 27.78 °E | Updated 13 minutes ago

Scattered Clouds
Scattered Clouds
66 °F
Feels Like 66 °F
N
8
Wind Variable Wind from SSW

Today
High -- | Low -- °F
--% Chance of Precip.
Yesterday
High -- | Low -- °F
Precip. -- in
6:58 AM 7:10 PM
Waning Crescent, 3% visible
Pressure 29.74 in
Visibility 6.2 miles
Clouds Scattered Clouds 1400 ft
Dew Point 59 °F
Humidity 78%
Rainfall 0.00 in
Snow Depth Not available.
UV 3 out of 12
Pollen Not available.
Air Quality Not available.
Flu Activity Not available.
METAR LUBL 220800Z 20007KT 160V230 9999 SCT014 19/15 Q1007

More Conditions Fewer Conditions

Pressure 29.74 in
Visibility 6.2 miles
Clouds Scattered Clouds 1400 ft
Dew Point 59 °F
Humidity 78%
Rainfall 0.00 in
Snow Depth Not available.
UV 3 out of 12
Pollen Not available.
Air Quality Not available.
Flu Activity Not available.
METAR LUBL 220800Z 20007KT 160V230 9999 SCT014 19/15 Q1007

More Conditions Fewer Conditions

10-Day Weather Forecast

Almanac

Astronomy

Sep. 22, 2014 Rise Set
Actual Time 6:58 AM EEST 7:10 PM EEST
Civil Twilight 6:27 AM EEST 7:41 PM EEST
Nautical Twilight 5:50 AM EEST 8:18 PM EEST
Astronomical Twilight 5:13 AM EEST 8:55 PM EEST
Moon 5:03 AM EEST 6:11 PM EEST
Length of Visible Light 13h 14m
Length of Day
12h 12m
Tomorrow will be 3m 27s shorter.
Waning Crescent, 3% of the Moon is Illuminated
Today
Waning Crescent
Sep 24
New
Oct 1
First Quarter
Oct 8
Full
Oct 15
Last Quarter

Yesterday's Extremes

Country Highs Country Lows

Community

WunderPhotos

Upload Photos

1,755,395 photos uploaded!

Nearby

Snow Depth

Not available.

Earthquake Activity

City Distance Mag. Time & Date
No recent earthquake activity has been reported nearby.
Minimum magnitude displayed is 2.5.

Coastal Water Temperatures

Place Temperature
No Stations Reporting

Nearby Weather Stations